Time;durP1;ratioP1;P1;durP2;ratioP2;P2;SDS_P1;SDS_P2;PMS_P1;PMS_P2;Temp;Humidity;BMP_temperature;BMP_pressure;BME280_temperature;BME280_humidity;BME280_pressure;Samples;Min_cycle;Max_cycle;Signal;HPM_P1;HPM_P2
2023/11/28 00:00:02;;;;;;;2.25;1.88;;;;;;;;;;6340348;28;20159;-72
2023/11/28 00:03:12;;;;;;;2.90;2.63;;;;;;;;;;6338948;28;20771;-73
2023/11/28 00:06:17;;;;;;;3.22;2.92;;;;;;;;;;6338218;28;20500;-73
2023/11/28 00:09:19;;;;;;;4.65;4.30;;;;;;;;;;6338272;28;20110;-73
2023/11/28 00:12:21;;;;;;;2.83;1.73;;;;;;;;;;6339896;28;20552;-73
2023/11/28 00:15:23;;;;;;;5.30;1.67;;;;;;;;;;6339604;28;20089;-72
2023/11/28 00:18:25;;;;;;;4.45;4.05;;;;;;;;;;6334686;28;20544;-72
2023/11/28 00:21:28;;;;;;;5.00;2.35;;;;;;;;;;6339219;28;20713;-72
2023/11/28 00:24:30;;;;;;;3.25;2.85;;;;;;;;;;6321308;28;20650;-72
2023/11/28 00:27:32;;;;;;;5.38;5.00;;;;;;;;;;6321036;28;20051;-72
2023/11/28 00:30:34;;;;;;;2.05;1.73;;;;;;;;;;6337347;28;20842;-72
2023/11/28 00:33:36;;;;;;;6.25;5.85;;;;;;;;;;6339151;28;20043;-73
2023/11/28 00:36:38;;;;;;;2.38;1.73;;;;;;;;;;6338675;28;20870;-72
2023/11/28 00:39:40;;;;;;;6.68;6.28;;;;;;;;;;6338044;28;20050;-73
2023/11/28 00:42:42;;;;;;;4.00;3.70;;;;;;;;;;6337626;28;20054;-73
2023/11/28 00:45:44;;;;;;;3.95;3.55;;;;;;;;;;6337589;28;20043;-73
2023/11/28 00:48:47;;;;;;;2.17;1.88;;;;;;;;;;6335769;28;20482;-72
2023/11/28 00:51:49;;;;;;;6.13;5.53;;;;;;;;;;6336797;28;20346;-72
2023/11/28 00:54:51;;;;;;;5.60;5.15;;;;;;;;;;6337190;28;20047;-73
2023/11/28 00:57:54;;;;;;;5.00;1.67;;;;;;;;;;6320581;28;20101;-73
2023/11/28 01:00:55;;;;;;;2.40;1.77;;;;;;;;;;6336954;28;20441;-72
2023/11/28 01:03:58;;;;;;;3.78;2.17;;;;;;;;;;6333704;28;20493;-73
2023/11/28 01:07:00;;;;;;;3.80;3.47;;;;;;;;;;6338376;28;20138;-73
2023/11/28 01:10:04;;;;;;;4.80;4.40;;;;;;;;;;6338609;28;20050;-73
2023/11/28 01:13:07;;;;;;;5.05;4.65;;;;;;;;;;6337198;28;20040;-73
2023/11/28 01:16:11;;;;;;;7.22;6.68;;;;;;;;;;6337782;28;20083;-73
2023/11/28 01:19:14;;;;;;;2.67;1.38;;;;;;;;;;6336752;28;20047;-73
2023/11/28 01:22:17;;;;;;;3.78;2.38;;;;;;;;;;6336522;28;20653;-73
2023/11/28 01:25:19;;;;;;;3.97;3.60;;;;;;;;;;6337523;28;20043;-74
2023/11/28 01:28:21;;;;;;;3.92;3.63;;;;;;;;;;6336678;28;20043;-72
2023/11/28 01:31:28;;;;;;;4.82;4.43;;;;;;;;;;6335889;28;20036;-72
2023/11/28 01:34:30;;;;;;;4.72;2.38;;;;;;;;;;6337163;28;20044;-73
2023/11/28 01:37:32;;;;;;;6.00;5.40;;;;;;;;;;6336117;28;20052;-72
2023/11/28 01:40:35;;;;;;;7.32;6.72;;;;;;;;;;6337217;28;20043;-71
2023/11/28 01:43:37;;;;;;;4.55;4.15;;;;;;;;;;6326281;28;20051;-72
2023/11/28 01:46:39;;;;;;;6.65;6.15;;;;;;;;;;6366201;28;20042;-73
2023/11/28 01:49:42;;;;;;;4.78;4.28;;;;;;;;;;6348782;28;20074;-72
2023/11/28 01:52:45;;;;;;;5.57;5.18;;;;;;;;;;6337378;28;20047;-72
2023/11/28 01:55:48;;;;;;;6.10;5.60;;;;;;;;;;6335896;28;20039;-72
2023/11/28 01:58:51;;;;;;;5.75;5.25;;;;;;;;;;6334967;28;20131;-72
2023/11/28 02:01:54;;;;;;;5.57;5.18;;;;;;;;;;6335617;28;20039;-72
2023/11/28 02:04:57;;;;;;;5.43;4.78;;;;;;;;;;6335536;28;20059;-73
2023/11/28 02:08:02;;;;;;;5.78;5.38;;;;;;;;;;6337062;28;20116;-72
2023/11/28 02:11:04;;;;;;;4.38;3.97;;;;;;;;;;6310044;28;20081;-72
2023/11/28 02:14:06;;;;;;;7.05;6.50;;;;;;;;;;6335354;28;20047;-73
2023/11/28 02:17:09;;;;;;;5.65;5.15;;;;;;;;;;6334754;28;20039;-73
2023/11/28 02:20:11;;;;;;;5.32;4.82;;;;;;;;;;6335884;28;20044;-73
2023/11/28 02:23:16;;;;;;;5.93;5.32;;;;;;;;;;6334709;28;20050;-73
2023/11/28 02:26:25;;;;;;;8.07;7.50;;;;;;;;;;6336759;28;20059;-73
2023/11/28 02:29:27;;;;;;;8.05;7.32;;;;;;;;;;6332622;28;20130;-72
2023/11/28 02:32:28;;;;;;;6.22;5.60;;;;;;;;;;6335209;28;20044;-72
2023/11/28 02:35:31;;;;;;;5.13;2.50;;;;;;;;;;6334784;28;20449;-72
2023/11/28 02:38:33;;;;;;;6.47;5.10;;;;;;;;;;6318161;28;20053;-72
2023/11/28 02:41:35;;;;;;;6.38;5.78;;;;;;;;;;6335020;28;20088;-72
2023/11/28 02:44:37;;;;;;;6.75;5.30;;;;;;;;;;6336069;28;20055;-72
2023/11/28 02:47:39;;;;;;;4.88;2.42;;;;;;;;;;6299002;28;21368;-72
2023/11/28 02:50:42;;;;;;;4.88;4.47;;;;;;;;;;6334560;28;20048;-72
2023/11/28 02:53:44;;;;;;;9.18;8.55;;;;;;;;;;6336110;28;20043;-72
2023/11/28 02:56:48;;;;;;;5.57;4.13;;;;;;;;;;6334658;28;20143;-72
2023/11/28 02:59:50;;;;;;;4.78;3.95;;;;;;;;;;6336757;28;20657;-72
2023/11/28 03:02:52;;;;;;;6.00;4.85;;;;;;;;;;6334899;28;20059;-72
2023/11/28 03:05:54;;;;;;;5.75;5.25;;;;;;;;;;6333962;28;20058;-72
2023/11/28 03:08:58;;;;;;;6.35;5.80;;;;;;;;;;6335311;28;20051;-72
2023/11/28 03:11:59;;;;;;;6.05;5.53;;;;;;;;;;6341539;28;20040;-72
2023/11/28 03:15:02;;;;;;;5.95;4.32;;;;;;;;;;6336610;28;20529;-72
2023/11/28 03:18:08;;;;;;;6.53;6.03;;;;;;;;;;6342445;28;20048;-72
2023/11/28 03:21:10;;;;;;;11.02;5.18;;;;;;;;;;6341007;28;20051;-72
2023/11/28 03:24:14;;;;;;;6.18;5.63;;;;;;;;;;6339484;28;20525;-72
2023/11/28 03:27:18;;;;;;;6.65;6.15;;;;;;;;;;6340570;28;20039;-72
2023/11/28 03:30:22;;;;;;;5.50;4.95;;;;;;;;;;6341076;28;20040;-72
2023/11/28 03:33:24;;;;;;;5.43;4.32;;;;;;;;;;6337239;27;20109;-72
2023/11/28 03:36:26;;;;;;;5.47;5.00;;;;;;;;;;6341123;28;20124;-72
2023/11/28 03:39:28;;;;;;;6.55;5.82;;;;;;;;;;6339596;28;20040;-72
2023/11/28 03:42:30;;;;;;;5.57;5.18;;;;;;;;;;6339400;28;20040;-73
2023/11/28 03:45:32;;;;;;;4.50;2.80;;;;;;;;;;6339619;28;20445;-71
2023/11/28 03:48:34;;;;;;;4.20;3.90;;;;;;;;;;6339380;28;20808;-71
2023/11/28 03:51:38;;;;;;;8.02;7.45;;;;;;;;;;6340357;27;20063;-71
2023/11/28 03:54:41;;;;;;;5.30;4.32;;;;;;;;;;6340090;28;20046;-72
2023/11/28 03:57:43;;;;;;;4.57;4.18;;;;;;;;;;6322712;28;20040;-72
2023/11/28 04:00:46;;;;;;;3.78;3.35;;;;;;;;;;6322586;28;20550;-72
2023/11/28 04:03:49;;;;;;;6.93;6.40;;;;;;;;;;6339121;28;20055;-72
2023/11/28 04:06:51;;;;;;;5.07;4.68;;;;;;;;;;6339330;28;20802;-72
2023/11/28 04:09:53;;;;;;;6.40;5.85;;;;;;;;;;6339154;28;20509;-72
2023/11/28 04:12:56;;;;;;;7.13;6.53;;;;;;;;;;6338361;28;20052;-71
2023/11/28 04:15:59;;;;;;;4.60;4.20;;;;;;;;;;6338082;28;20121;-72
2023/11/28 04:19:01;;;;;;;6.38;5.43;;;;;;;;;;6337083;28;20173;-72
2023/11/28 04:22:03;;;;;;;4.53;3.38;;;;;;;;;;6342438;28;20746;-72
2023/11/28 04:25:07;;;;;;;5.45;5.05;;;;;;;;;;6359122;28;20040;-72
2023/11/28 04:28:09;;;;;;;7.20;5.25;;;;;;;;;;6358268;28;20044;-71
2023/11/28 04:31:21;;;;;;;6.13;5.72;;;;;;;;;;6338413;28;20050;-72
2023/11/28 04:34:29;;;;;;;5.55;5.05;;;;;;;;;;6328177;28;20081;-72
2023/11/28 04:37:31;;;;;;;5.75;5.25;;;;;;;;;;6320625;28;20067;-72
2023/11/28 04:40:33;;;;;;;6.60;5.95;;;;;;;;;;6338128;28;20032;-72
2023/11/28 04:43:36;;;;;;;5.57;5.18;;;;;;;;;;6321355;28;20043;-72
2023/11/28 04:46:39;;;;;;;6.93;6.32;;;;;;;;;;6315770;28;20063;-72
2023/11/28 04:49:41;;;;;;;7.97;7.47;;;;;;;;;;6316490;28;20047;-72
2023/11/28 04:52:43;;;;;;;6.13;5.72;;;;;;;;;;6336440;28;20220;-72
2023/11/28 04:55:45;;;;;;;5.38;4.88;;;;;;;;;;6336916;28;20047;-72
2023/11/28 04:58:48;;;;;;;6.13;5.65;;;;;;;;;;6331305;28;20044;-71
2023/11/28 05:01:51;;;;;;;4.13;3.83;;;;;;;;;;6330842;28;20040;-71
2023/11/28 05:04:53;;;;;;;6.82;6.22;;;;;;;;;;6331429;27;20112;-72
2023/11/28 05:07:55;;;;;;;7.03;6.53;;;;;;;;;;6336856;28;20047;-72
2023/11/28 05:10:58;;;;;;;2.13;1.50;;;;;;;;;;6335149;28;20484;-73
2023/11/28 05:14:01;;;;;;;3.13;2.30;;;;;;;;;;6333250;28;20536;-72
2023/11/28 05:17:06;;;;;;;4.45;3.97;;;;;;;;;;6336133;28;20152;-72
2023/11/28 05:20:09;;;;;;;5.88;5.47;;;;;;;;;;6328691;28;20044;-71
2023/11/28 05:23:13;;;;;;;5.50;5.00;;;;;;;;;;6342149;27;20059;-72
2023/11/28 05:26:17;;;;;;;4.65;4.25;;;;;;;;;;6330847;28;20126;-72
2023/11/28 05:29:20;;;;;;;5.97;5.47;;;;;;;;;;6337432;28;20039;-72
2023/11/28 05:32:22;;;;;;;5.05;4.65;;;;;;;;;;6330412;28;20043;-72
2023/11/28 05:35:25;;;;;;;6.50;6.00;;;;;;;;;;6335907;28;20135;-72
2023/11/28 05:38:27;;;;;;;5.65;5.25;;;;;;;;;;6314756;28;20044;-72
2023/11/28 05:41:30;;;;;;;5.60;2.97;;;;;;;;;;6333060;28;20047;-72
2023/11/28 05:44:32;;;;;;;5.63;5.13;;;;;;;;;;6331815;28;20043;-72
2023/11/28 05:47:36;;;;;;;6.90;6.18;;;;;;;;;;6321170;28;20055;-72
2023/11/28 05:50:39;;;;;;;9.10;8.52;;;;;;;;;;6332000;28;20035;-71
2023/11/28 05:53:40;;;;;;;4.22;3.72;;;;;;;;;;6333271;28;20047;-71
2023/11/28 05:56:44;;;;;;;6.68;2.47;;;;;;;;;;6327874;28;20831;-71
2023/11/28 05:59:46;;;;;;;5.47;5.00;;;;;;;;;;6318127;28;20035;-71
2023/11/28 06:02:48;;;;;;;3.35;2.78;;;;;;;;;;6334226;28;20440;-71
2023/11/28 06:05:50;;;;;;;5.13;4.72;;;;;;;;;;6327741;28;20039;-72
2023/11/28 06:08:53;;;;;;;5.72;5.22;;;;;;;;;;6332405;28;20043;-71
2023/11/28 06:11:55;;;;;;;6.05;5.45;;;;;;;;;;6328733;28;20036;-70
2023/11/28 06:15:00;;;;;;;6.53;5.93;;;;;;;;;;6326071;28;20035;-74
2023/11/28 06:18:03;;;;;;;10.15;7.40;;;;;;;;;;6330268;28;20044;-71
2023/11/28 06:21:08;;;;;;;9.85;5.65;;;;;;;;;;6332025;28;20535;-72
2023/11/28 06:24:14;;;;;;;;;;;;;;;;;;6343447;27;20055;-71
2023/11/28 06:27:16;;;;;;;6.20;5.70;;;;;;;;;;6333264;28;19946;-71
2023/11/28 06:30:18;;;;;;;7.85;7.00;;;;;;;;;;6334680;28;20069;-72
2023/11/28 06:33:20;;;;;;;7.75;6.82;;;;;;;;;;6319455;28;20043;-72
2023/11/28 06:36:22;;;;;;;9.90;7.13;;;;;;;;;;6332163;28;20059;-72
2023/11/28 06:39:24;;;;;;;10.52;9.40;;;;;;;;;;6329838;28;20039;-72
2023/11/28 06:42:27;;;;;;;9.20;6.72;;;;;;;;;;6332089;28;20039;-72
2023/11/28 06:45:31;;;;;;;9.45;7.82;;;;;;;;;;6330910;28;20529;-72
2023/11/28 06:48:33;;;;;;;8.55;4.82;;;;;;;;;;6331684;28;20545;-71
2023/11/28 06:51:35;;;;;;;7.95;6.47;;;;;;;;;;6334045;28;20035;-72
2023/11/28 06:54:38;;;;;;;10.15;5.68;;;;;;;;;;6335933;28;20454;-72
2023/11/28 06:57:40;;;;;;;16.05;12.52;;;;;;;;;;6334213;28;20524;-72
2023/11/28 07:00:42;;;;;;;10.85;9.85;;;;;;;;;;6335085;28;21345;-72
2023/11/28 07:03:44;;;;;;;7.15;6.55;;;;;;;;;;6335337;28;20589;-72
2023/11/28 07:06:46;;;;;;;7.43;4.82;;;;;;;;;;6334462;28;20539;-71
2023/11/28 07:09:53;;;;;;;8.02;7.32;;;;;;;;;;6331478;28;20231;-72
2023/11/28 07:12:55;;;;;;;6.93;4.18;;;;;;;;;;6342849;28;20798;-72
2023/11/28 07:15:57;;;;;;;6.65;5.97;;;;;;;;;;6366925;28;20065;-72
2023/11/28 07:19:00;;;;;;;6.75;6.15;;;;;;;;;;6335143;28;20050;-72
2023/11/28 07:22:02;;;;;;;6.03;3.40;;;;;;;;;;6335483;28;20067;-72
2023/11/28 07:25:04;;;;;;;5.82;5.20;;;;;;;;;;6330630;28;20067;-73
2023/11/28 07:28:07;;;;;;;8.05;7.20;;;;;;;;;;6334434;28;20137;-73
2023/11/28 07:31:10;;;;;;;6.82;6.22;;;;;;;;;;6330107;28;20052;-73
2023/11/28 07:34:12;;;;;;;7.40;6.70;;;;;;;;;;6298569;28;20152;-72
2023/11/28 07:37:14;;;;;;;6.88;6.25;;;;;;;;;;6330287;28;20043;-73
2023/11/28 07:40:16;;;;;;;5.93;3.67;;;;;;;;;;6316719;28;20642;-73
2023/11/28 07:43:18;;;;;;;6.28;5.68;;;;;;;;;;6333692;28;20056;-73
2023/11/28 07:46:20;;;;;;;7.82;7.25;;;;;;;;;;6332465;28;20043;-73
2023/11/28 07:49:22;;;;;;;7.07;6.38;;;;;;;;;;6296951;28;20104;-73
2023/11/28 07:52:25;;;;;;;8.60;7.38;;;;;;;;;;6331206;28;20091;-72
2023/11/28 07:55:28;;;;;;;7.93;6.50;;;;;;;;;;6331695;28;20032;-73
2023/11/28 07:58:30;;;;;;;9.23;7.68;;;;;;;;;;6337845;28;20047;-72
2023/11/28 08:01:32;;;;;;;7.65;3.83;;;;;;;;;;6339098;28;20052;-72
2023/11/28 08:04:34;;;;;;;5.65;5.15;;;;;;;;;;6338072;28;20032;-72
2023/11/28 08:07:36;;;;;;;7.50;6.80;;;;;;;;;;6339674;28;20092;-72
2023/11/28 08:10:39;;;;;;;8.25;6.63;;;;;;;;;;6339202;28;20051;-72
2023/11/28 08:13:41;;;;;;;10.10;6.03;;;;;;;;;;6339285;28;20063;-72
2023/11/28 08:16:43;;;;;;;5.10;4.60;;;;;;;;;;6305282;28;20302;-72
2023/11/28 08:19:46;;;;;;;7.05;6.55;;;;;;;;;;6340272;28;20176;-72
2023/11/28 08:22:50;;;;;;;6.57;5.97;;;;;;;;;;6339906;28;20044;-72
2023/11/28 08:25:53;;;;;;;5.88;4.78;;;;;;;;;;6338652;28;20059;-72
2023/11/28 08:28:55;;;;;;;5.75;4.50;;;;;;;;;;6332706;28;20036;-72
2023/11/28 08:31:58;;;;;;;6.18;5.68;;;;;;;;;;6335390;28;20117;-72
2023/11/28 08:35:01;;;;;;;9.18;5.30;;;;;;;;;;6339981;28;20422;-73
2023/11/28 08:38:04;;;;;;;8.52;5.80;;;;;;;;;;6339666;28;20498;-72
2023/11/28 08:41:07;;;;;;;10.07;8.85;;;;;;;;;;6339964;28;20050;-72
2023/11/28 08:44:09;;;;;;;12.85;10.18;;;;;;;;;;6338251;28;20051;-72
2023/11/28 08:47:11;;;;;;;7.90;7.18;;;;;;;;;;6339596;28;20035;-72
2023/11/28 08:50:14;;;;;;;6.30;5.75;;;;;;;;;;6337938;28;20046;-72
2023/11/28 08:53:16;;;;;;;6.32;5.63;;;;;;;;;;6321011;28;20067;-72
2023/11/28 08:56:18;;;;;;;7.10;6.47;;;;;;;;;;6338152;28;20066;-72
2023/11/28 08:59:20;;;;;;;6.63;6.13;;;;;;;;;;6339308;28;20136;-72
2023/11/28 09:02:23;;;;;;;4.18;3.25;;;;;;;;;;6339761;28;20438;-72
2023/11/28 09:05:28;;;;;;;;;;;;;;;;;;6339186;28;20039;-72
2023/11/28 09:08:30;;;;;;;4.30;4.00;;;;;;;;;;6337971;28;20671;-72
2023/11/28 09:11:32;;;;;;;5.10;4.60;;;;;;;;;;6336969;28;20036;-73
2023/11/28 09:14:34;;;;;;;5.60;5.10;;;;;;;;;;6338736;28;20047;-73
2023/11/28 09:17:52;;;;;;;4.85;3.50;;;;;;;;;;6333033;28;20777;-72
2023/11/28 09:20:54;;;;;;;4.35;3.88;;;;;;;;;;6347202;28;20020;-74
2023/11/28 09:23:57;;;;;;;5.82;5.38;;;;;;;;;;6350148;28;20043;-74
2023/11/28 09:26:59;;;;;;;2.72;1.63;;;;;;;;;;6307008;28;20111;-74
2023/11/28 09:30:01;;;;;;;2.63;2.38;;;;;;;;;;6336555;28;20036;-73
2023/11/28 09:33:03;;;;;;;9.18;6.57;;;;;;;;;;6337164;28;20079;-73
2023/11/28 09:36:05;;;;;;;8.40;6.07;;;;;;;;;;6338373;28;20040;-73
2023/11/28 09:39:09;;;;;;;5.80;3.72;;;;;;;;;;6332867;28;20035;-73
2023/11/28 09:42:12;;;;;;;9.10;5.25;;;;;;;;;;6329552;28;20043;-73
2023/11/28 09:45:14;;;;;;;5.90;3.80;;;;;;;;;;6335862;28;20436;-73
2023/11/28 09:48:17;;;;;;;4.13;3.05;;;;;;;;;;6319522;28;20051;-73
2023/11/28 09:51:23;;;;;;;7.13;6.45;;;;;;;;;;6290170;28;20196;-73
2023/11/28 09:54:27;;;;;;;10.63;9.80;;;;;;;;;;6331317;28;20059;-73
2023/11/28 09:57:33;;;;;;;6.40;5.40;;;;;;;;;;6318766;28;20053;-73
2023/11/28 10:00:35;;;;;;;8.38;7.72;;;;;;;;;;6335941;28;20035;-73
2023/11/28 10:03:37;;;;;;;4.65;2.40;;;;;;;;;;6318861;28;20051;-73
2023/11/28 10:06:43;;;;;;;8.55;4.85;;;;;;;;;;6335965;28;20059;-73
2023/11/28 10:09:49;;;;;;;6.45;4.10;;;;;;;;;;6318144;28;20074;-73
2023/11/28 10:12:52;;;;;;;4.60;3.72;;;;;;;;;;6335060;28;20521;-72
2023/11/28 10:15:58;;;;;;;5.28;4.75;;;;;;;;;;6335527;28;20043;-72
2023/11/28 10:19:00;;;;;;;6.97;6.38;;;;;;;;;;6336053;28;20549;-72
2023/11/28 10:22:04;;;;;;;6.05;5.55;;;;;;;;;;6332543;28;20043;-72
2023/11/28 10:25:09;;;;;;;4.80;3.38;;;;;;;;;;6335240;28;20494;-72
2023/11/28 10:28:14;;;;;;;6.90;6.20;;;;;;;;;;6336396;28;20125;-72
2023/11/28 10:31:18;;;;;;;6.45;5.85;;;;;;;;;;6335401;28;20047;-72
2023/11/28 10:34:21;;;;;;;5.75;5.25;;;;;;;;;;6336552;28;20046;-72
2023/11/28 10:37:23;;;;;;;5.03;4.63;;;;;;;;;;6335652;28;20553;-72
2023/11/28 10:40:25;;;;;;;6.13;5.63;;;;;;;;;;6335540;28;20854;-72
2023/11/28 10:43:29;;;;;;;7.20;6.50;;;;;;;;;;6335265;28;20075;-72
2023/11/28 10:46:34;;;;;;;5.13;2.97;;;;;;;;;;6335998;28;20495;-72
2023/11/28 10:49:36;;;;;;;7.95;7.22;;;;;;;;;;6335565;28;20051;-71
2023/11/28 10:52:39;;;;;;;5.93;5.40;;;;;;;;;;6335725;28;20119;-72
2023/11/28 10:55:49;;;;;;;7.03;5.03;;;;;;;;;;6336264;28;20091;-73
2023/11/28 10:58:53;;;;;;;8.10;7.43;;;;;;;;;;6334835;28;20050;-73
2023/11/28 11:01:55;;;;;;;4.65;3.00;;;;;;;;;;6335271;28;20035;-73
2023/11/28 11:04:57;;;;;;;6.00;5.50;;;;;;;;;;6336948;28;20048;-72
2023/11/28 11:07:59;;;;;;;6.07;5.47;;;;;;;;;;6334874;28;20099;-71
2023/11/28 11:11:02;;;;;;;5.32;2.33;;;;;;;;;;6317362;28;20058;-73
2023/11/28 11:14:15;;;;;;;3.95;3.03;;;;;;;;;;6336456;28;20039;-72
2023/11/28 11:17:17;;;;;;;5.45;4.95;;;;;;;;;;6319157;28;20063;-72
2023/11/28 11:20:22;;;;;;;6.60;6.10;;;;;;;;;;6335044;28;20039;-73
2023/11/28 11:23:24;;;;;;;;;;;;;;;;;;6335388;28;20059;-73
2023/11/28 11:26:39;;;;;;;4.15;3.05;;;;;;;;;;6334255;28;20371;-72
2023/11/28 11:29:42;;;;;;;2.97;2.50;;;;;;;;;;6335604;28;20562;-72
2023/11/28 11:32:45;;;;;;;8.05;7.53;;;;;;;;;;6339291;28;20074;-72
2023/11/28 11:36:01;;;;;;;6.32;5.80;;;;;;;;;;6340829;28;20043;-72
2023/11/28 11:39:17;;;;;;;5.35;3.60;;;;;;;;;;6340374;28;20441;-72
2023/11/28 11:42:26;;;;;;;3.55;2.72;;;;;;;;;;6312444;28;20051;-72
2023/11/28 11:45:28;;;;;;;6.20;5.70;;;;;;;;;;6339594;28;20517;-73
2023/11/28 11:48:30;;;;;;;4.88;4.43;;;;;;;;;;6340413;28;20055;-73
2023/11/28 11:51:33;;;;;;;6.78;6.18;;;;;;;;;;6305147;28;20051;-73
2023/11/28 11:54:36;;;;;;;4.80;4.35;;;;;;;;;;6340275;28;20032;-73
2023/11/28 11:57:39;;;;;;;5.18;4.78;;;;;;;;;;6322671;28;20587;-73
2023/11/28 12:00:41;;;;;;;7.03;6.45;;;;;;;;;;6338727;28;20069;-73
2023/11/28 12:03:43;;;;;;;5.28;2.88;;;;;;;;;;6337904;28;20047;-73
2023/11/28 12:07:00;;;;;;;4.10;3.00;;;;;;;;;;6338969;28;20042;-72
2023/11/28 12:10:07;;;;;;;4.10;3.20;;;;;;;;;;6351921;27;20544;-72
2023/11/28 12:13:11;;;;;;;5.05;2.15;;;;;;;;;;6364556;27;20349;-73
2023/11/28 12:16:14;;;;;;;6.60;6.07;;;;;;;;;;6346914;28;20053;-73
2023/11/28 12:19:16;;;;;;;7.05;6.53;;;;;;;;;;6337534;28;20058;-73
2023/11/28 12:22:19;;;;;;;4.95;2.70;;;;;;;;;;6333014;28;20032;-72
2023/11/28 12:25:23;;;;;;;5.38;4.30;;;;;;;;;;6337478;28;20066;-73
2023/11/28 12:28:26;;;;;;;3.97;3.20;;;;;;;;;;6338355;28;20142;-72
2023/11/28 12:31:29;;;;;;;5.75;5.15;;;;;;;;;;6312071;28;20654;-72
2023/11/28 12:34:32;;;;;;;5.50;3.38;;;;;;;;;;6339626;28;20047;-73
2023/11/28 12:37:34;;;;;;;4.60;3.50;;;;;;;;;;6337868;28;20052;-73
2023/11/28 12:40:36;;;;;;;6.18;5.65;;;;;;;;;;6335496;28;20058;-73
2023/11/28 12:43:38;;;;;;;5.25;2.42;;;;;;;;;;6338503;28;20438;-73
2023/11/28 12:46:41;;;;;;;6.43;3.50;;;;;;;;;;6338451;28;20119;-71
2023/11/28 12:49:45;;;;;;;5.13;3.22;;;;;;;;;;6338885;28;20044;-73
2023/11/28 12:52:48;;;;;;;4.35;3.17;;;;;;;;;;6341090;28;20038;-73
2023/11/28 12:55:50;;;;;;;5.07;3.10;;;;;;;;;;6337829;28;20058;-73
2023/11/28 12:58:52;;;;;;;6.90;6.05;;;;;;;;;;6339477;28;20136;-74
2023/11/28 13:01:56;;;;;;;5.18;3.80;;;;;;;;;;6339705;28;20043;-73
2023/11/28 13:04:59;;;;;;;5.47;4.55;;;;;;;;;;6335568;28;20054;-73
2023/11/28 13:08:02;;;;;;;4.28;3.42;;;;;;;;;;6338005;28;20039;-73
2023/11/28 13:11:05;;;;;;;4.78;3.72;;;;;;;;;;6320590;28;20047;-73
2023/11/28 13:14:07;;;;;;;3.60;3.22;;;;;;;;;;6338392;28;20128;-72
2023/11/28 13:17:09;;;;;;;3.75;2.42;;;;;;;;;;6316886;28;20039;-74
2023/11/28 13:20:13;;;;;;;5.75;5.10;;;;;;;;;;6337612;28;20039;-72
2023/11/28 13:23:15;;;;;;;4.65;3.33;;;;;;;;;;6339702;28;20407;-73
2023/11/28 13:26:18;;;;;;;5.97;5.07;;;;;;;;;;6339469;28;20051;-72
2023/11/28 13:29:22;;;;;;;3.50;3.05;;;;;;;;;;6320915;28;20123;-72
2023/11/28 13:32:25;;;;;;;5.00;4.50;;;;;;;;;;6336976;28;20048;-71
2023/11/28 13:35:29;;;;;;;4.85;4.43;;;;;;;;;;6338596;28;20115;-73
2023/11/28 13:38:31;;;;;;;5.47;4.97;;;;;;;;;;6336620;28;20112;-73
2023/11/28 13:41:33;;;;;;;3.58;2.30;;;;;;;;;;6338360;28;20051;-73
2023/11/28 13:44:35;;;;;;;5.78;5.03;;;;;;;;;;6316217;28;20042;-73
2023/11/28 13:47:38;;;;;;;7.10;3.72;;;;;;;;;;6337771;28;20055;-73
2023/11/28 13:50:40;;;;;;;4.53;3.50;;;;;;;;;;6322518;28;20050;-73
2023/11/28 13:53:42;;;;;;;5.80;5.07;;;;;;;;;;6327520;28;20193;-73
2023/11/28 13:56:45;;;;;;;2.83;2.00;;;;;;;;;;6337538;28;20471;-73
2023/11/28 13:59:47;;;;;;;6.30;5.80;;;;;;;;;;6334643;28;20044;-74
2023/11/28 14:02:49;;;;;;;4.35;3.25;;;;;;;;;;6335829;28;20043;-73
2023/11/28 14:05:51;;;;;;;5.88;5.43;;;;;;;;;;6318316;28;20051;-73
2023/11/28 14:08:55;;;;;;;6.60;6.07;;;;;;;;;;6329897;28;20545;-73
2023/11/28 14:11:59;;;;;;;5.43;3.15;;;;;;;;;;6324457;28;20550;-73
2023/11/28 14:15:08;;;;;;;6.40;5.80;;;;;;;;;;6313114;28;20047;-73
2023/11/28 14:18:10;;;;;;;3.70;3.22;;;;;;;;;;6324471;28;20048;-74
2023/11/28 14:21:14;;;;;;;3.70;3.15;;;;;;;;;;6323525;28;20079;-73
2023/11/28 14:24:16;;;;;;;5.75;5.22;;;;;;;;;;6327881;28;20032;-74
2023/11/28 14:27:20;;;;;;;6.35;5.55;;;;;;;;;;6323770;28;20055;-75
2023/11/28 14:30:23;;;;;;;4.32;3.70;;;;;;;;;;6329533;28;20071;-73
2023/11/28 14:33:28;;;;;;;6.28;5.50;;;;;;;;;;6326933;28;20039;-73
2023/11/28 14:36:31;;;;;;;6.90;6.30;;;;;;;;;;6323003;28;20142;-73
2023/11/28 14:39:33;;;;;;;5.90;5.35;;;;;;;;;;6330034;28;20138;-73
2023/11/28 14:42:35;;;;;;;6.40;5.80;;;;;;;;;;6334238;28;20045;-73
2023/11/28 14:45:37;;;;;;;7.22;6.63;;;;;;;;;;6332165;28;20060;-74
2023/11/28 14:48:39;;;;;;;5.93;5.43;;;;;;;;;;6348164;27;20510;-73
2023/11/28 14:51:43;;;;;;;5.95;4.22;;;;;;;;;;6317936;28;20051;-72
2023/11/28 14:54:45;;;;;;;3.88;2.22;;;;;;;;;;6336446;28;20031;-72
2023/11/28 14:57:47;;;;;;;5.47;4.05;;;;;;;;;;6335771;28;20267;-73
2023/11/28 15:00:51;;;;;;;8.23;5.35;;;;;;;;;;6332099;28;20758;-75
2023/11/28 15:03:53;;;;;;;7.20;4.72;;;;;;;;;;6324429;28;20043;-74
2023/11/28 15:06:55;;;;;;;5.93;5.43;;;;;;;;;;6345232;28;20052;-75
2023/11/28 15:09:57;;;;;;;5.03;4.28;;;;;;;;;;6341057;28;20056;-74
2023/11/28 15:13:00;;;;;;;5.32;3.78;;;;;;;;;;6339643;28;20441;-75
2023/11/28 15:16:02;;;;;;;7.53;6.60;;;;;;;;;;6331999;28;20142;-75
2023/11/28 15:19:05;;;;;;;4.95;4.32;;;;;;;;;;6313248;28;20052;-74
2023/11/28 15:22:08;;;;;;;6.63;6.03;;;;;;;;;;6343404;27;20079;-74
2023/11/28 15:25:10;;;;;;;5.85;3.42;;;;;;;;;;6325605;28;20028;-73
2023/11/28 15:28:17;;;;;;;5.30;4.25;;;;;;;;;;6338727;28;20437;-75
2023/11/28 15:31:19;;;;;;;7.80;6.38;;;;;;;;;;6335021;28;20099;-75
2023/11/28 15:34:23;;;;;;;5.97;4.18;;;;;;;;;;6322267;28;20131;-75
2023/11/28 15:37:26;;;;;;;5.20;3.53;;;;;;;;;;6339276;28;20047;-75
2023/11/28 15:40:29;;;;;;;3.90;3.05;;;;;;;;;;6336520;28;20485;-75
2023/11/28 15:43:35;;;;;;;24.70;15.95;;;;;;;;;;6338551;28;20046;-75
2023/11/28 15:46:38;;;;;;;8.82;7.93;;;;;;;;;;6326913;28;20133;-75
2023/11/28 15:49:40;;;;;;;7.70;6.88;;;;;;;;;;6338823;28;20055;-74
2023/11/28 15:52:49;;;;;;;9.20;4.50;;;;;;;;;;6322269;28;20096;-74
2023/11/28 15:55:52;;;;;;;8.15;6.68;;;;;;;;;;6341167;28;20530;-74
2023/11/28 15:58:54;;;;;;;10.82;8.73;;;;;;;;;;6337043;28;20070;-74
2023/11/28 16:01:56;;;;;;;6.70;5.10;;;;;;;;;;6340292;28;20477;-77
2023/11/28 16:04:59;;;;;;;8.80;7.38;;;;;;;;;;6339408;28;20053;-74
2023/11/28 16:08:04;;;;;;;24.63;14.07;;;;;;;;;;6328824;28;20075;-76
2023/11/28 16:11:07;;;;;;;12.63;11.35;;;;;;;;;;6329090;28;20044;-79
2023/11/28 16:14:10;;;;;;;6.82;4.72;;;;;;;;;;6325094;28;20043;-73
2023/11/28 16:17:12;;;;;;;9.88;6.03;;;;;;;;;;6336142;28;20067;-73
2023/11/28 16:20:15;;;;;;;9.93;9.00;;;;;;;;;;6329185;28;20553;-75
2023/11/28 16:23:17;;;;;;;7.32;3.90;;;;;;;;;;6337471;28;20510;-74
2023/11/28 16:26:19;;;;;;;8.98;6.82;;;;;;;;;;6319543;28;20036;-74
2023/11/28 16:29:23;;;;;;;9.65;8.75;;;;;;;;;;6320525;28;20042;-74
2023/11/28 16:32:25;;;;;;;10.10;6.63;;;;;;;;;;6338863;28;20039;-75
2023/11/28 16:35:28;;;;;;;7.18;5.95;;;;;;;;;;6318065;28;20050;-74
2023/11/28 16:38:36;;;;;;;10.20;7.80;;;;;;;;;;6333798;28;20040;-74
2023/11/28 16:41:38;;;;;;;8.43;5.38;;;;;;;;;;6334797;28;20055;-74
2023/11/28 16:44:40;;;;;;;7.35;4.20;;;;;;;;;;6304278;28;20118;-74
2023/11/28 16:47:42;;;;;;;9.70;8.70;;;;;;;;;;6338168;28;20040;-73
2023/11/28 16:50:44;;;;;;;7.10;4.65;;;;;;;;;;6333778;28;20050;-74
2023/11/28 16:53:48;;;;;;;6.93;6.32;;;;;;;;;;6338269;28;20043;-75
2023/11/28 16:56:50;;;;;;;5.40;4.90;;;;;;;;;;6320852;28;20073;-76
2023/11/28 16:59:53;;;;;;;6.32;5.72;;;;;;;;;;6333257;28;20052;-72
2023/11/28 17:02:55;;;;;;;6.72;6.13;;;;;;;;;;6337043;28;20059;-74
2023/11/28 17:05:59;;;;;;;6.70;5.00;;;;;;;;;;6334525;28;20047;-73
2023/11/28 17:09:02;;;;;;;6.85;4.32;;;;;;;;;;6334264;28;20644;-74
2023/11/28 17:12:04;;;;;;;6.18;5.47;;;;;;;;;;6329888;28;20057;-75
2023/11/28 17:15:07;;;;;;;8.82;5.60;;;;;;;;;;6332920;28;20032;-75
2023/11/28 17:18:09;;;;;;;5.88;3.15;;;;;;;;;;6336170;28;20043;-76
2023/11/28 17:21:17;;;;;;;3.28;2.78;;;;;;;;;;6330933;28;20052;-75
2023/11/28 17:24:20;;;;;;;6.10;4.38;;;;;;;;;;6318878;28;20031;-75
2023/11/28 17:27:25;;;;;;;5.55;3.85;;;;;;;;;;6333944;28;20035;-75
2023/11/28 17:30:27;;;;;;;5.57;5.07;;;;;;;;;;6326441;28;20527;-75
2023/11/28 17:33:30;;;;;;;3.22;2.92;;;;;;;;;;6328842;28;20169;-75
2023/11/28 17:36:34;;;;;;;4.07;3.28;;;;;;;;;;6329322;28;20056;-76
2023/11/28 17:39:41;;;;;;;3.80;2.67;;;;;;;;;;6334865;28;20043;-75
2023/11/28 17:42:44;;;;;;;5.93;5.43;;;;;;;;;;6330760;28;20101;-75
2023/11/28 17:45:46;;;;;;;4.32;3.17;;;;;;;;;;6299517;28;20055;-75
2023/11/28 17:48:49;;;;;;;6.35;5.60;;;;;;;;;;6323863;28;20086;-76
2023/11/28 17:51:50;;;;;;;6.03;5.43;;;;;;;;;;6326940;28;20537;-74
2023/11/28 17:54:52;;;;;;;5.88;5.32;;;;;;;;;;6310668;28;20044;-74
2023/11/28 17:57:56;;;;;;;7.07;6.45;;;;;;;;;;6358299;28;20095;-74
2023/11/28 18:01:03;;;;;;;11.35;5.55;;;;;;;;;;6336486;28;20127;-72
2023/11/28 18:04:05;;;;;;;7.93;7.13;;;;;;;;;;6330162;28;20036;-74
2023/11/28 18:07:08;;;;;;;9.93;7.22;;;;;;;;;;6333493;28;20457;-72
2023/11/28 18:10:10;;;;;;;10.20;6.82;;;;;;;;;;6330249;28;20050;-73
2023/11/28 18:13:12;;;;;;;4.70;2.78;;;;;;;;;;6335480;28;20806;-75
2023/11/28 18:16:14;;;;;;;6.68;4.78;;;;;;;;;;6335579;28;20054;-73